Time;durP1;ratioP1;P1;durP2;ratioP2;P2;SDS_P1;SDS_P2;PMS_P1;PMS_P2;Temp;Humidity;BMP_temperature;BMP_pressure;BME280_temperature;BME280_humidity;BME280_pressure;Samples;Min_cycle;Max_cycle;Signal;HPM_P1;HPM_P2
2022/08/07 00:00:26;;;;;;;21.17;11.95;;;;;;;;;;4911534;29;20115;-81
2022/08/07 00:02:52;;;;;;;20.25;12.45;;;;;;;;;;4918651;29;20042;-79
2022/08/07 00:05:17;;;;;;;21.50;10.98;;;;;;;;;;4919703;29;20055;-81
2022/08/07 00:07:43;;;;;;;16.88;11.85;;;;;;;;;;4919399;29;20051;-81
2022/08/07 00:10:08;;;;;;;22.48;12.10;;;;;;;;;;4904149;29;20515;-81
2022/08/07 00:12:34;;;;;;;24.33;12.02;;;;;;;;;;4936379;29;20036;-80
2022/08/07 00:14:59;;;;;;;20.83;11.82;;;;;;;;;;4906609;29;20484;-82
2022/08/07 00:17:24;;;;;;;22.13;12.43;;;;;;;;;;4903189;29;20492;-81
2022/08/07 00:19:50;;;;;;;24.98;11.85;;;;;;;;;;4898305;29;20070;-81
2022/08/07 00:22:15;;;;;;;20.60;13.10;;;;;;;;;;4935641;29;20063;-81
2022/08/07 00:24:41;;;;;;;26.50;12.30;;;;;;;;;;4935220;29;20555;-81
2022/08/07 00:27:06;;;;;;;24.88;13.10;;;;;;;;;;4903590;29;20220;-81
2022/08/07 00:29:31;;;;;;;22.83;12.32;;;;;;;;;;4917396;29;20028;-80
2022/08/07 00:31:58;;;;;;;20.65;12.07;;;;;;;;;;4898968;29;20038;-80
2022/08/07 00:34:25;;;;;;;26.10;12.73;;;;;;;;;;4905679;29;20035;-81
2022/08/07 00:36:51;;;;;;;21.55;12.52;;;;;;;;;;4899325;29;20604;-80
2022/08/07 00:39:18;;;;;;;22.95;13.05;;;;;;;;;;4897636;29;20151;-82
2022/08/07 00:41:51;;;;;;;37.00;15.68;;;;;;;;;;4896553;29;20074;-81
2022/08/07 00:44:17;;;;;;;26.95;13.88;;;;;;;;;;4902693;29;20508;-80
2022/08/07 00:46:42;;;;;;;24.15;14.40;;;;;;;;;;4917688;29;20118;-80
2022/08/07 00:49:08;;;;;;;22.80;13.85;;;;;;;;;;4901333;29;20031;-80
2022/08/07 00:51:34;;;;;;;21.75;13.40;;;;;;;;;;4919430;29;20031;-80
2022/08/07 00:53:59;;;;;;;23.38;13.23;;;;;;;;;;4918476;29;20038;-82
2022/08/07 00:56:24;;;;;;;21.77;13.10;;;;;;;;;;4893268;29;20034;-80
2022/08/07 00:58:50;;;;;;;29.52;14.07;;;;;;;;;;4899531;29;20049;-81
2022/08/07 01:01:16;;;;;;;21.92;13.07;;;;;;;;;;4897515;29;20063;-81
2022/08/07 01:03:41;;;;;;;30.55;15.35;;;;;;;;;;4936019;29;20034;-81
2022/08/07 01:06:07;;;;;;;29.10;15.63;;;;;;;;;;4902167;29;20457;-80
2022/08/07 01:08:32;;;;;;;20.70;13.25;;;;;;;;;;4919213;29;20036;-81
2022/08/07 01:10:59;;;;;;;30.02;14.90;;;;;;;;;;4916401;29;20432;-80
2022/08/07 01:13:24;;;;;;;24.48;14.05;;;;;;;;;;4934978;29;20480;-80
2022/08/07 01:15:50;;;;;;;28.23;15.13;;;;;;;;;;4900929;29;20130;-81
2022/08/07 01:18:15;;;;;;;30.08;15.98;;;;;;;;;;4930506;29;20455;-81
2022/08/07 01:20:57;;;;;;;25.13;14.90;;;;;;;;;;4886745;29;20227;-80
2022/08/07 01:23:22;;;;;;;27.85;16.05;;;;;;;;;;4918919;29;20496;-81
2022/08/07 01:25:48;;;;;;;25.88;15.48;;;;;;;;;;4916411;29;20042;-80
2022/08/07 01:28:13;;;;;;;30.42;16.65;;;;;;;;;;4915677;29;20624;-81
2022/08/07 01:30:38;;;;;;;28.17;16.67;;;;;;;;;;4917909;29;20066;-80
2022/08/07 01:33:04;;;;;;;34.33;17.48;;;;;;;;;;4932737;29;20082;-81
2022/08/07 01:35:29;;;;;;;30.35;16.80;;;;;;;;;;4918309;29;20082;-80
2022/08/07 01:37:54;;;;;;;27.55;15.80;;;;;;;;;;4900496;29;20051;-81
2022/08/07 01:40:20;;;;;;;28.60;16.40;;;;;;;;;;4885517;29;20314;-83
2022/08/07 01:42:46;;;;;;;31.35;17.83;;;;;;;;;;4919061;29;20063;-80
2022/08/07 01:45:11;;;;;;;34.33;17.55;;;;;;;;;;4913821;29;20035;-79
2022/08/07 01:47:36;;;;;;;32.60;17.75;;;;;;;;;;4901173;29;20099;-81
2022/08/07 01:50:03;;;;;;;32.95;19.02;;;;;;;;;;4917366;29;20370;-80
2022/08/07 01:52:29;;;;;;;34.38;17.92;;;;;;;;;;4917750;29;20042;-81
2022/08/07 01:54:55;;;;;;;26.77;15.77;;;;;;;;;;4902494;29;20094;-82
2022/08/07 01:57:24;;;;;;;32.65;17.80;;;;;;;;;;4913328;29;20044;-80
2022/08/07 01:59:59;;;;;;;31.77;17.25;;;;;;;;;;4932909;29;20091;-80
2022/08/07 02:02:37;;;;;;;32.25;17.73;;;;;;;;;;4946995;29;20042;-81
2022/08/07 02:05:06;;;;;;;28.02;17.13;;;;;;;;;;4918591;29;20039;-80
2022/08/07 02:07:38;;;;;;;36.00;19.20;;;;;;;;;;4915819;29;20024;-80
2022/08/07 02:10:04;;;;;;;35.42;19.98;;;;;;;;;;4900848;29;20063;-81
2022/08/07 02:12:30;;;;;;;39.75;20.50;;;;;;;;;;4917753;29;20043;-81
2022/08/07 02:14:56;;;;;;;37.17;19.75;;;;;;;;;;4886944;29;20024;-80
2022/08/07 02:17:21;;;;;;;41.83;19.75;;;;;;;;;;4932941;29;20050;-80
2022/08/07 02:19:47;;;;;;;34.55;20.48;;;;;;;;;;4900363;29;20115;-81
2022/08/07 02:22:13;;;;;;;37.38;19.83;;;;;;;;;;4878317;29;20403;-80
2022/08/07 02:24:40;;;;;;;36.20;20.75;;;;;;;;;;4916820;29;20032;-80
2022/08/07 02:27:07;;;;;;;42.47;21.75;;;;;;;;;;4932933;29;20106;-80
2022/08/07 02:29:33;;;;;;;37.50;20.48;;;;;;;;;;4931407;29;20487;-80
2022/08/07 02:31:59;;;;;;;39.70;20.80;;;;;;;;;;4916048;29;20039;-80
2022/08/07 02:34:25;;;;;;;36.58;21.55;;;;;;;;;;4899556;29;20028;-81
2022/08/07 02:36:50;;;;;;;37.70;22.00;;;;;;;;;;4898338;29;20070;-81
2022/08/07 02:39:16;;;;;;;34.63;19.77;;;;;;;;;;4928504;29;20444;-80
2022/08/07 02:41:41;;;;;;;44.08;21.77;;;;;;;;;;4930870;29;20040;-81
2022/08/07 02:44:07;;;;;;;41.67;20.80;;;;;;;;;;4915470;29;20063;-81
2022/08/07 02:46:32;;;;;;;47.60;23.08;;;;;;;;;;4934327;29;20241;-79
2022/08/07 02:48:58;;;;;;;41.35;20.40;;;;;;;;;;4908958;29;20023;-80
2022/08/07 02:51:24;;;;;;;38.63;21.40;;;;;;;;;;4919041;29;20035;-82
2022/08/07 02:53:53;;;;;;;42.80;22.75;;;;;;;;;;4931414;29;20518;-81
2022/08/07 02:56:18;;;;;;;42.45;22.42;;;;;;;;;;4916832;29;20488;-82
2022/08/07 02:58:44;;;;;;;43.83;23.08;;;;;;;;;;4898271;29;20090;-82
2022/08/07 03:01:09;;;;;;;43.90;22.88;;;;;;;;;;4931903;29;20023;-80
2022/08/07 03:03:34;;;;;;;43.58;22.00;;;;;;;;;;4883461;29;20055;-80
2022/08/07 03:06:00;;;;;;;43.08;22.27;;;;;;;;;;4900506;29;20031;-80
2022/08/07 03:08:25;;;;;;;40.92;21.25;;;;;;;;;;4901282;29;20106;-81
2022/08/07 03:10:50;;;;;;;42.72;22.90;;;;;;;;;;4916759;29;20090;-80
2022/08/07 03:13:16;;;;;;;41.70;22.08;;;;;;;;;;4917504;29;20067;-81
2022/08/07 03:15:41;;;;;;;48.03;23.52;;;;;;;;;;4946625;28;20027;-82
2022/08/07 03:18:07;;;;;;;38.72;20.98;;;;;;;;;;4900932;29;20031;-80
2022/08/07 03:20:32;;;;;;;39.95;20.88;;;;;;;;;;4932832;29;20534;-80
2022/08/07 03:22:58;;;;;;;39.17;20.48;;;;;;;;;;4934925;29;20387;-82
2022/08/07 03:25:24;;;;;;;37.47;21.33;;;;;;;;;;4932223;29;20066;-81
2022/08/07 03:27:50;;;;;;;39.10;21.15;;;;;;;;;;4934615;29;20035;-81
2022/08/07 03:30:15;;;;;;;34.40;18.77;;;;;;;;;;4926128;29;20055;-81
2022/08/07 03:32:41;;;;;;;38.38;18.95;;;;;;;;;;4917437;29;20035;-80
2022/08/07 03:35:11;;;;;;;40.00;21.52;;;;;;;;;;4902334;29;20039;-81
2022/08/07 03:37:36;;;;;;;42.25;21.92;;;;;;;;;;4901226;29;20031;-81
2022/08/07 03:40:02;;;;;;;44.17;22.38;;;;;;;;;;4882437;29;20044;-82
2022/08/07 03:42:28;;;;;;;47.22;23.35;;;;;;;;;;4907193;29;20086;-81
2022/08/07 03:44:53;;;;;;;46.20;22.05;;;;;;;;;;4914750;29;20122;-80
2022/08/07 03:47:18;;;;;;;52.83;22.92;;;;;;;;;;4902912;29;20507;-81
2022/08/07 03:49:44;;;;;;;45.08;22.00;;;;;;;;;;4896556;29;20062;-80
2022/08/07 03:52:09;;;;;;;42.30;21.58;;;;;;;;;;4912229;29;20024;-82
2022/08/07 03:54:35;;;;;;;41.40;22.35;;;;;;;;;;4917150;29;20055;-81
2022/08/07 03:57:00;;;;;;;39.60;21.10;;;;;;;;;;4919151;29;20494;-81
2022/08/07 03:59:25;;;;;;;40.97;20.73;;;;;;;;;;4886232;29;20515;-81
2022/08/07 04:01:51;;;;;;;42.10;22.33;;;;;;;;;;4933563;29;20036;-81
2022/08/07 04:04:16;;;;;;;42.75;22.67;;;;;;;;;;4904652;29;20031;-82
2022/08/07 04:06:43;;;;;;;41.28;21.65;;;;;;;;;;4904255;29;20038;-81
2022/08/07 04:09:08;;;;;;;43.47;21.95;;;;;;;;;;4921244;29;20576;-81
2022/08/07 04:11:33;;;;;;;52.33;24.02;;;;;;;;;;4903791;29;20036;-81
2022/08/07 04:14:00;;;;;;;48.55;24.17;;;;;;;;;;4902511;29;20096;-81
2022/08/07 04:16:26;;;;;;;50.85;24.17;;;;;;;;;;4935424;29;20032;-81
2022/08/07 04:18:51;;;;;;;48.33;24.17;;;;;;;;;;4927398;29;20075;-80
2022/08/07 04:21:16;;;;;;;49.72;24.42;;;;;;;;;;4918648;29;20058;-81
2022/08/07 04:23:42;;;;;;;47.35;25.38;;;;;;;;;;4903056;29;20070;-81
2022/08/07 04:26:07;;;;;;;51.85;25.23;;;;;;;;;;4932985;29;20028;-81
2022/08/07 04:28:32;;;;;;;44.67;23.75;;;;;;;;;;4904517;29;20122;-81
2022/08/07 04:30:59;;;;;;;51.47;23.63;;;;;;;;;;4902639;29;20536;-81
2022/08/07 04:33:25;;;;;;;46.92;22.33;;;;;;;;;;4901374;29;20046;-82
2022/08/07 04:35:50;;;;;;;49.67;24.55;;;;;;;;;;4898230;29;20031;-82
2022/08/07 04:38:15;;;;;;;49.70;24.70;;;;;;;;;;4896891;29;20040;-82
2022/08/07 04:40:42;;;;;;;50.03;24.90;;;;;;;;;;4933425;29;20080;-82
2022/08/07 04:43:07;;;;;;;50.92;25.08;;;;;;;;;;4932261;29;20539;-82
2022/08/07 04:46:14;;;;;;;55.45;26.35;;;;;;;;;;4930155;29;20404;-82
2022/08/07 04:49:09;;;;;;;54.67;25.30;;;;;;;;;;4909650;29;20103;-83
2022/08/07 04:51:41;;;;;;;48.17;24.85;;;;;;;;;;4920154;29;20092;-82
2022/08/07 04:54:24;;;;;;;52.72;24.67;;;;;;;;;;4928601;29;20364;-82
2022/08/07 04:56:55;;;;;;;59.78;26.50;;;;;;;;;;4932411;29;20091;-81
2022/08/07 04:59:41;;;;;;;62.47;25.98;;;;;;;;;;4917621;29;20154;-81
2022/08/07 05:02:11;;;;;;;50.58;24.67;;;;;;;;;;4919569;29;20029;-81
2022/08/07 05:04:52;;;;;;;51.72;26.05;;;;;;;;;;4924967;29;20028;-81
2022/08/07 05:07:24;;;;;;;60.55;26.08;;;;;;;;;;4928588;29;20036;-81
2022/08/07 05:10:29;;;;;;;55.47;25.48;;;;;;;;;;4886499;29;20043;-82
2022/08/07 05:12:58;;;;;;;56.30;26.38;;;;;;;;;;4843728;29;20085;-81
2022/08/07 05:15:26;;;;;;;56.65;27.02;;;;;;;;;;4832562;29;20167;-81
2022/08/07 05:17:57;;;;;;;54.92;27.15;;;;;;;;;;4887077;29;20051;-81
2022/08/07 05:20:25;;;;;;;56.13;27.13;;;;;;;;;;4901385;29;20040;-81
2022/08/07 05:22:52;;;;;;;55.65;28.08;;;;;;;;;;4916720;29;20032;-82
2022/08/07 05:25:18;;;;;;;53.78;27.10;;;;;;;;;;4911746;29;20039;-82
2022/08/07 05:27:43;;;;;;;53.90;28.30;;;;;;;;;;4917383;29;20039;-81
2022/08/07 05:30:09;;;;;;;59.13;28.15;;;;;;;;;;4902068;29;20159;-81
2022/08/07 05:32:35;;;;;;;55.05;28.50;;;;;;;;;;4886007;29;20070;-83
2022/08/07 05:35:01;;;;;;;59.85;29.30;;;;;;;;;;4934101;29;20067;-82
2022/08/07 05:37:26;;;;;;;60.13;29.15;;;;;;;;;;4931478;29;20075;-81
2022/08/07 05:39:52;;;;;;;60.97;29.98;;;;;;;;;;4930406;29;20059;-82
2022/08/07 05:42:17;;;;;;;71.65;30.60;;;;;;;;;;4916151;29;20035;-82
2022/08/07 05:44:43;;;;;;;61.08;29.67;;;;;;;;;;4932442;29;20039;-81
2022/08/07 05:47:10;;;;;;;64.20;31.35;;;;;;;;;;4931836;29;20570;-83
2022/08/07 05:49:35;;;;;;;63.70;29.77;;;;;;;;;;4932248;29;20542;-81
2022/08/07 05:52:03;;;;;;;63.75;30.17;;;;;;;;;;4915914;29;20083;-80
2022/08/07 05:54:28;;;;;;;63.10;29.52;;;;;;;;;;4933022;29;20039;-81
2022/08/07 05:56:54;;;;;;;60.65;30.48;;;;;;;;;;4916802;29;20031;-81
2022/08/07 05:59:20;;;;;;;64.70;29.83;;;;;;;;;;4900314;29;20042;-81
2022/08/07 06:01:45;;;;;;;72.47;32.80;;;;;;;;;;4898079;29;20293;-80
2022/08/07 06:04:11;;;;;;;74.75;33.72;;;;;;;;;;4928421;29;20063;-81
2022/08/07 06:06:36;;;;;;;70.75;32.85;;;;;;;;;;4910787;29;20033;-80
2022/08/07 06:09:01;;;;;;;77.03;34.25;;;;;;;;;;4898439;29;20028;-79
2022/08/07 06:11:27;;;;;;;86.72;36.67;;;;;;;;;;4884125;29;20036;-77
2022/08/07 06:13:52;;;;;;;82.45;37.38;;;;;;;;;;4930308;29;20122;-77
2022/08/07 06:16:19;;;;;;;81.13;36.83;;;;;;;;;;4912865;29;20031;-78
2022/08/07 06:18:44;;;;;;;81.68;38.95;;;;;;;;;;4898050;29;20027;-78
2022/08/07 06:21:10;;;;;;;88.40;38.03;;;;;;;;;;4934056;29;20471;-79
2022/08/07 06:23:35;;;;;;;77.78;36.05;;;;;;;;;;4902830;29;20120;-78
2022/08/07 06:26:00;;;;;;;79.30;37.03;;;;;;;;;;4935008;29;20150;-79
2022/08/07 06:28:26;;;;;;;66.43;35.85;;;;;;;;;;4886494;29;20225;-78
2022/08/07 06:30:51;;;;;;;59.20;31.23;;;;;;;;;;4918239;29;20039;-79
2022/08/07 06:33:17;;;;;;;58.60;32.33;;;;;;;;;;4900056;29;20030;-78
2022/08/07 06:35:42;;;;;;;53.80;32.05;;;;;;;;;;4932841;29;20524;-79
2022/08/07 06:38:08;;;;;;;50.53;28.75;;;;;;;;;;4896937;29;20040;-79
2022/08/07 06:40:36;;;;;;;48.40;29.42;;;;;;;;;;4917950;29;20102;-79
2022/08/07 06:43:02;;;;;;;40.03;27.27;;;;;;;;;;4919275;29;20035;-80
2022/08/07 06:45:28;;;;;;;37.55;24.58;;;;;;;;;;4915939;29;20506;-79
2022/08/07 06:47:54;;;;;;;38.97;25.48;;;;;;;;;;4910969;29;20032;-80
2022/08/07 06:50:21;;;;;;;35.53;24.83;;;;;;;;;;4920127;29;20535;-77
2022/08/07 06:52:47;;;;;;;30.95;23.17;;;;;;;;;;4933225;29;20039;-79
2022/08/07 06:55:21;;;;;;;29.90;20.75;;;;;;;;;;4913506;29;20028;-80
2022/08/07 06:57:47;;;;;;;27.88;19.98;;;;;;;;;;4913128;29;20055;-81
2022/08/07 07:00:12;;;;;;;34.00;20.55;;;;;;;;;;4880781;29;20139;-80
2022/08/07 07:02:38;;;;;;;26.90;19.92;;;;;;;;;;4899413;29;20027;-79
2022/08/07 07:05:04;;;;;;;21.38;17.60;;;;;;;;;;4881870;29;20039;-78
2022/08/07 07:07:29;;;;;;;21.27;16.15;;;;;;;;;;4911061;29;20032;-78
2022/08/07 07:09:56;;;;;;;19.02;15.88;;;;;;;;;;4930104;29;20028;-79
2022/08/07 07:12:39;;;;;;;19.17;13.95;;;;;;;;;;4924717;29;20056;-80
2022/08/07 07:15:18;;;;;;;18.92;14.57;;;;;;;;;;4931797;29;20043;-80
2022/08/07 07:18:07;;;;;;;19.58;14.02;;;;;;;;;;4914416;29;20039;-77
2022/08/07 07:20:35;;;;;;;16.48;13.50;;;;;;;;;;4943925;28;20036;-80
2022/08/07 07:23:01;;;;;;;16.80;12.90;;;;;;;;;;4913967;29;20115;-79
2022/08/07 07:25:26;;;;;;;15.63;11.35;;;;;;;;;;4887644;29;20086;-79
2022/08/07 07:27:55;;;;;;;15.60;10.85;;;;;;;;;;4914506;29;20042;-80
2022/08/07 07:30:28;;;;;;;14.45;10.80;;;;;;;;;;4904034;29;20063;-81
2022/08/07 07:32:53;;;;;;;11.13;9.63;;;;;;;;;;4919352;29;20032;-80
2022/08/07 07:35:18;;;;;;;11.07;7.85;;;;;;;;;;4904480;29;20437;-80
2022/08/07 07:37:44;;;;;;;11.15;9.98;;;;;;;;;;4871256;29;20122;-79
2022/08/07 07:40:13;;;;;;;12.98;10.20;;;;;;;;;;4917567;29;20078;-79
2022/08/07 07:42:38;;;;;;;12.02;9.25;;;;;;;;;;4890316;29;20179;-79
2022/08/07 07:45:04;;;;;;;11.57;9.98;;;;;;;;;;4935107;29;20063;-80
2022/08/07 07:47:30;;;;;;;11.93;10.10;;;;;;;;;;4905081;29;20047;-80
2022/08/07 07:49:55;;;;;;;12.02;9.70;;;;;;;;;;4917105;29;20353;-79
2022/08/07 07:52:21;;;;;;;12.20;10.30;;;;;;;;;;4903598;29;20051;-81
2022/08/07 07:54:48;;;;;;;13.00;11.13;;;;;;;;;;4889367;29;20472;-79
2022/08/07 07:57:13;;;;;;;15.95;11.48;;;;;;;;;;4950060;29;20031;-81
2022/08/07 07:59:39;;;;;;;14.48;8.23;;;;;;;;;;4889244;29;20479;-78
2022/08/07 08:02:04;;;;;;;16.40;9.30;;;;;;;;;;4913531;29;20031;-80
2022/08/07 08:04:30;;;;;;;10.55;9.48;;;;;;;;;;4926717;29;20114;-81
2022/08/07 08:06:56;;;;;;;11.52;10.00;;;;;;;;;;4911946;29;20150;-79
2022/08/07 08:09:24;;;;;;;13.40;9.77;;;;;;;;;;4879707;29;20030;-79
2022/08/07 08:11:50;;;;;;;12.07;9.20;;;;;;;;;;4922749;29;20059;-80
2022/08/07 08:14:15;;;;;;;8.82;7.93;;;;;;;;;;4898634;29;20411;-83
2022/08/07 08:16:42;;;;;;;9.20;8.25;;;;;;;;;;4915919;29;20091;-78
2022/08/07 08:19:09;;;;;;;10.23;8.25;;;;;;;;;;4892095;29;20114;-79
2022/08/07 08:27:04;;;;;;;9.02;6.40;;;;;;;;;;4947329;29;20032;-82
2022/08/07 08:29:31;;;;;;;9.50;7.68;;;;;;;;;;4926888;29;20036;-81
2022/08/07 08:31:56;;;;;;;10.15;7.70;;;;;;;;;;4932862;29;20035;-76
2022/08/07 08:34:21;;;;;;;13.82;9.00;;;;;;;;;;4898946;29;20146;-76
2022/08/07 08:36:48;;;;;;;10.55;7.80;;;;;;;;;;4882114;29;20126;-75
2022/08/07 08:39:14;;;;;;;7.53;6.63;;;;;;;;;;4900916;29;20469;-76
2022/08/07 08:41:55;;;;;;;8.88;7.97;;;;;;;;;;4879246;29;20036;-81
2022/08/07 08:44:24;;;;;;;10.20;7.85;;;;;;;;;;4914117;29;20082;-80
2022/08/07 08:47:27;;;;;;;11.02;7.80;;;;;;;;;;4911972;29;20516;-80
2022/08/07 08:50:08;;;;;;;11.77;7.75;;;;;;;;;;4951657;28;20110;-80
2022/08/07 08:52:35;;;;;;;8.35;6.28;;;;;;;;;;4933344;29;20034;-80
2022/08/07 08:55:08;;;;;;;10.40;7.40;;;;;;;;;;4902156;29;20040;-80
2022/08/07 08:57:37;;;;;;;8.15;7.00;;;;;;;;;;4915709;29;20623;-80
2022/08/07 09:00:07;;;;;;;13.32;6.68;;;;;;;;;;4902304;29;20038;-80
2022/08/07 09:02:59;;;;;;;6.65;5.70;;;;;;;;;;4935984;29;20031;-80
2022/08/07 09:05:30;;;;;;;7.82;5.53;;;;;;;;;;4918889;29;20036;-80
2022/08/07 09:08:20;;;;;;;7.47;5.80;;;;;;;;;;4935232;29;20040;-80
2022/08/07 09:10:55;;;;;;;7.82;5.50;;;;;;;;;;4949126;29;20051;-80
2022/08/07 09:13:55;;;;;;;11.55;5.53;;;;;;;;;;4931559;29;20043;-81
2022/08/07 09:16:38;;;;;;;7.60;5.50;;;;;;;;;;4932421;29;20111;-80
2022/08/07 09:19:37;;;;;;;6.82;5.38;;;;;;;;;;4911511;29;20031;-79
2022/08/07 09:22:12;;;;;;;9.90;5.45;;;;;;;;;;4944741;29;20039;-80
2022/08/07 09:24:51;;;;;;;6.63;5.45;;;;;;;;;;4955051;28;20066;-81
2022/08/07 09:27:39;;;;;;;7.38;4.80;;;;;;;;;;4923406;29;20043;-81
2022/08/07 09:30:05;;;;;;;7.80;5.22;;;;;;;;;;4929310;29;20093;-80
2022/08/07 09:32:51;;;;;;;6.68;5.95;;;;;;;;;;4916723;29;20035;-81
2022/08/07 09:35:55;;;;;;;7.70;5.28;;;;;;;;;;4944251;29;20067;-80
2022/08/07 09:38:45;;;;;;;12.25;6.88;;;;;;;;;;4872241;29;20044;-80
2022/08/07 09:41:37;;;;;;;10.30;6.57;;;;;;;;;;4855007;29;20045;-80
2022/08/07 09:44:13;;;;;;;11.57;6.03;;;;;;;;;;4914289;29;20054;-81
2022/08/07 09:47:14;;;;;;;8.65;5.63;;;;;;;;;;4897596;29;20047;-80
2022/08/07 09:50:00;;;;;;;8.88;6.05;;;;;;;;;;4898876;29;20035;-80
2022/08/07 09:52:31;;;;;;;5.82;4.60;;;;;;;;;;4932476;29;20134;-80
2022/08/07 09:55:03;;;;;;;8.13;5.43;;;;;;;;;;4921657;29;20035;-80
2022/08/07 09:57:38;;;;;;;6.45;4.63;;;;;;;;;;4930867;29;20221;-80
2022/08/07 10:00:10;;;;;;;9.80;5.40;;;;;;;;;;4932750;29;20047;-80
2022/08/07 10:02:38;;;;;;;6.70;4.53;;;;;;;;;;4933929;29;20035;-80
2022/08/07 10:05:42;;;;;;;5.78;4.38;;;;;;;;;;4915560;29;20502;-80
2022/08/07 10:08:13;;;;;;;;;;;;;;;;;;4935109;29;20035;-80
2022/08/07 10:10:52;;;;;;;7.88;5.55;;;;;;;;;;4931920;29;19989;-80
2022/08/07 10:13:35;;;;;;;7.20;4.32;;;;;;;;;;4932604;29;20994;-80
2022/08/07 10:16:07;;;;;;;7.70;4.57;;;;;;;;;;4931281;29;20122;-80
2022/08/07 10:18:38;;;;;;;6.57;4.80;;;;;;;;;;4915193;29;20361;-81
2022/08/07 10:21:29;;;;;;;7.40;4.35;;;;;;;;;;4944944;29;20047;-81
2022/08/07 10:24:18;;;;;;;5.45;3.85;;;;;;;;;;4916900;29;20086;-82
2022/08/07 10:27:09;;;;;;;4.65;4.00;;;;;;;;;;4919279;29;20344;-81
2022/08/07 10:29:47;;;;;;;5.20;3.00;;;;;;;;;;4940812;29;20094;-81
2022/08/07 10:32:46;;;;;;;5.28;3.42;;;;;;;;;;4931775;29;20052;-81
2022/08/07 10:35:25;;;;;;;5.20;3.67;;;;;;;;;;4928246;29;20036;-81
2022/08/07 10:38:22;;;;;;;4.95;3.80;;;;;;;;;;4945983;29;20476;-82
2022/08/07 10:40:52;;;;;;;6.93;4.50;;;;;;;;;;4941249;29;20043;-81
2022/08/07 10:43:25;;;;;;;7.57;3.67;;;;;;;;;;4929660;29;20042;-82
2022/08/07 10:45:59;;;;;;;7.65;3.92;;;;;;;;;;4925503;29;20050;-81
2022/08/07 10:48:49;;;;;;;7.78;4.28;;;;;;;;;;4913943;29;20118;-81
2022/08/07 10:51:48;;;;;;;5.85;3.83;;;;;;;;;;4915219;29;20036;-81
2022/08/07 10:54:17;;;;;;;5.38;3.38;;;;;;;;;;4952915;28;20046;-82
2022/08/07 10:57:09;;;;;;;3.50;2.88;;;;;;;;;;4916237;29;20036;-82
2022/08/07 11:00:06;;;;;;;5.25;3.13;;;;;;;;;;4940084;29;20035;-81
2022/08/07 11:02:50;;;;;;;5.18;3.40;;;;;;;;;;4931321;29;20103;-82
2022/08/07 11:05:28;;;;;;;6.60;3.88;;;;;;;;;;4949182;28;20043;-82
2022/08/07 11:07:56;;;;;;;6.25;3.72;;;;;;;;;;4896540;29;20108;-81
2022/08/07 11:10:32;;;;;;;6.30;3.28;;;;;;;;;;4928982;29;20510;-81
2022/08/07 11:13:01;;;;;;;4.82;3.05;;;;;;;;;;4906337;29;20032;-81
2022/08/07 11:15:27;;;;;;;6.65;3.13;;;;;;;;;;4932000;29;20036;-81
2022/08/07 11:17:55;;;;;;;7.80;5.97;;;;;;;;;;4948464;29;20020;-81
2022/08/07 11:20:22;;;;;;;6.63;3.35;;;;;;;;;;4951128;28;20071;-83
2022/08/07 11:22:50;;;;;;;5.65;3.80;;;;;;;;;;4919416;29;20448;-82
2022/08/07 11:25:20;;;;;;;6.57;3.05;;;;;;;;;;4923701;29;20391;-81
2022/08/07 11:28:07;;;;;;;7.15;2.67;;;;;;;;;;4919666;29;20035;-81
2022/08/07 11:31:09;;;;;;;5.80;2.95;;;;;;;;;;4931695;29;20036;-81
2022/08/07 11:33:53;;;;;;;7.25;3.17;;;;;;;;;;4933250;29;20043;-82
2022/08/07 11:36:30;;;;;;;7.32;2.55;;;;;;;;;;4918049;29;20039;-81
2022/08/07 11:39:08;;;;;;;3.97;2.53;;;;;;;;;;4951615;28;20424;-82
2022/08/07 11:41:46;;;;;;;3.42;2.53;;;;;;;;;;4916204;29;20326;-81
2022/08/07 11:44:42;;;;;;;4.45;2.78;;;;;;;;;;4949122;28;20134;-81
2022/08/07 11:47:39;;;;;;;4.00;2.50;;;;;;;;;;4937569;28;20601;-81
2022/08/07 11:50:23;;;;;;;4.90;2.92;;;;;;;;;;4946202;28;20062;-81
2022/08/07 11:52:59;;;;;;;4.97;2.72;;;;;;;;;;4916904;29;20039;-81
2022/08/07 11:56:02;;;;;;;4.65;2.75;;;;;;;;;;4929145;29;20496;-81
2022/08/07 11:58:58;;;;;;;4.95;2.70;;;;;;;;;;4920759;29;20686;-81
2022/08/07 12:01:34;;;;;;;4.18;3.00;;;;;;;;;;4925584;29;20476;-81
2022/08/07 12:04:31;;;;;;;4.90;2.50;;;;;;;;;;4925247;29;20500;-82
2022/08/07 12:07:05;;;;;;;4.78;2.53;;;;;;;;;;4893372;29;20044;-81
2022/08/07 12:09:34;;;;;;;4.40;2.20;;;;;;;;;;4893862;29;20123;-81
2022/08/07 12:12:13;;;;;;;4.35;2.13;;;;;;;;;;4898265;29;20028;-81
2022/08/07 12:15:01;;;;;;;3.75;2.13;;;;;;;;;;4908736;29;20125;-81
2022/08/07 12:17:50;;;;;;;3.53;2.13;;;;;;;;;;4927035;29;20035;-81
2022/08/07 12:20:38;;;;;;;3.25;2.17;;;;;;;;;;4913665;29;20035;-80
2022/08/07 12:23:03;;;;;;;4.18;2.00;;;;;;;;;;4911602;28;20039;-81
2022/08/07 12:25:53;;;;;;;4.70;1.90;;;;;;;;;;4935872;29;20426;-80
2022/08/07 12:28:51;;;;;;;4.38;2.03;;;;;;;;;;4905847;29;20596;-79
2022/08/07 12:31:21;;;;;;;3.47;1.90;;;;;;;;;;4905837;29;20047;-81
2022/08/07 12:33:46;;;;;;;3.75;1.80;;;;;;;;;;4868286;29;20036;-80
2022/08/07 12:36:13;;;;;;;3.95;1.55;;;;;;;;;;4914395;29;20115;-81
2022/08/07 12:38:38;;;;;;;3.20;1.85;;;;;;;;;;4885020;29;20052;-81
2022/08/07 12:41:03;;;;;;;4.97;1.80;;;;;;;;;;4897095;29;20399;-81
2022/08/07 12:43:31;;;;;;;3.30;1.60;;;;;;;;;;4929007;29;20079;-80
2022/08/07 12:46:40;;;;;;;3.60;1.70;;;;;;;;;;4916240;29;20031;-81
2022/08/07 12:49:18;;;;;;;3.47;1.67;;;;;;;;;;4913909;29;20083;-81
2022/08/07 12:51:59;;;;;;;3.58;1.95;;;;;;;;;;4897372;29;20040;-80
2022/08/07 12:54:30;;;;;;;4.20;2.65;;;;;;;;;;4922099;29;20039;-80
2022/08/07 12:56:55;;;;;;;4.07;1.98;;;;;;;;;;4895863;29;20518;-81
2022/08/07 12:59:28;;;;;;;2.97;2.08;;;;;;;;;;4917802;29;20027;-80
2022/08/07 13:02:11;;;;;;;5.03;2.13;;;;;;;;;;4912591;29;20372;-80
2022/08/07 13:04:43;;;;;;;2.65;1.55;;;;;;;;;;4914581;29;20030;-79
2022/08/07 13:07:27;;;;;;;2.88;1.88;;;;;;;;;;4927493;29;20376;-79
2022/08/07 13:10:07;;;;;;;4.25;1.90;;;;;;;;;;4925808;29;20523;-79
2022/08/07 13:13:03;;;;;;;6.22;1.75;;;;;;;;;;4930938;29;20118;-79
2022/08/07 13:16:04;;;;;;;4.95;1.73;;;;;;;;;;4913932;29;20031;-79
2022/08/07 13:18:38;;;;;;;3.35;1.75;;;;;;;;;;4894384;29;20043;-79
2022/08/07 13:21:29;;;;;;;3.30;1.75;;;;;;;;;;4894253;29;20936;-79
2022/08/07 13:24:21;;;;;;;2.88;1.30;;;;;;;;;;4919022;29;20040;-79
2022/08/07 13:27:40;;;;;;;2.28;1.58;;;;;;;;;;4912316;29;20531;-79
2022/08/07 13:30:11;;;;;;;4.25;1.40;;;;;;;;;;4906506;29;20507;-79
2022/08/07 13:32:47;;;;;;;2.90;1.60;;;;;;;;;;4897546;29;20460;-79
2022/08/07 13:35:30;;;;;;;3.92;1.55;;;;;;;;;;4895844;29;20056;-79
2022/08/07 13:38:02;;;;;;;2.38;1.30;;;;;;;;;;4911458;29;20042;-79
2022/08/07 13:40:33;;;;;;;2.53;1.40;;;;;;;;;;4897327;29;20412;-79
2022/08/07 13:43:05;;;;;;;2.35;1.42;;;;;;;;;;4925161;29;20028;-80
2022/08/07 13:45:31;;;;;;;2.15;1.23;;;;;;;;;;4904883;29;20027;-80
2022/08/07 13:47:56;;;;;;;2.92;1.70;;;;;;;;;;4898881;29;20023;-81
2022/08/07 13:50:23;;;;;;;3.22;1.60;;;;;;;;;;4915859;29;20435;-81
2022/08/07 13:52:49;;;;;;;3.20;1.48;;;;;;;;;;4913392;29;20387;-80
2022/08/07 13:55:17;;;;;;;4.18;1.92;;;;;;;;;;4916804;29;20038;-80
2022/08/07 13:57:43;;;;;;;4.00;1.98;;;;;;;;;;4912664;29;20024;-79
2022/08/07 14:00:11;;;;;;;4.32;1.98;;;;;;;;;;4911587;29;20481;-79
2022/08/07 14:02:37;;;;;;;4.28;1.70;;;;;;;;;;4926886;29;20032;-79
2022/08/07 14:05:08;;;;;;;3.58;1.55;;;;;;;;;;4929779;29;20400;-79
2022/08/07 14:07:38;;;;;;;2.50;1.67;;;;;;;;;;4915321;29;20067;-79
2022/08/07 14:10:04;;;;;;;4.05;1.60;;;;;;;;;;4907670;29;20082;-79
2022/08/07 14:12:45;;;;;;;6.40;1.80;;;;;;;;;;4931375;29;20039;-79
2022/08/07 14:15:39;;;;;;;3.42;1.75;;;;;;;;;;4915423;29;20083;-79
2022/08/07 14:18:34;;;;;;;4.47;1.80;;;;;;;;;;4900369;29;20039;-80
2022/08/07 14:21:30;;;;;;;3.85;2.03;;;;;;;;;;4898245;29;20044;-80
2022/08/07 14:23:59;;;;;;;3.30;2.00;;;;;;;;;;4922657;29;20554;-79
2022/08/07 14:26:35;;;;;;;3.35;2.05;;;;;;;;;;4915719;29;20035;-79
2022/08/07 14:29:01;;;;;;;7.38;2.65;;;;;;;;;;4931812;29;20399;-79
2022/08/07 14:31:27;;;;;;;4.95;2.15;;;;;;;;;;4947015;28;20046;-79
2022/08/07 14:33:55;;;;;;;3.17;2.00;;;;;;;;;;4947349;29;20487;-80
2022/08/07 14:36:21;;;;;;;3.85;1.90;;;;;;;;;;4909267;29;20040;-80
2022/08/07 14:38:48;;;;;;;3.33;1.90;;;;;;;;;;4900936;29;20074;-79
2022/08/07 14:41:16;;;;;;;4.25;2.03;;;;;;;;;;4884355;29;20032;-80
2022/08/07 14:43:42;;;;;;;3.38;2.00;;;;;;;;;;4932467;29;20031;-80
2022/08/07 14:46:08;;;;;;;4.00;1.88;;;;;;;;;;4910065;29;20040;-79
2022/08/07 14:48:35;;;;;;;5.78;2.28;;;;;;;;;;4915451;29;20031;-79
2022/08/07 14:51:06;;;;;;;2.83;1.90;;;;;;;;;;4901237;29;20044;-80
2022/08/07 14:53:35;;;;;;;4.28;2.47;;;;;;;;;;4905374;29;20029;-80
2022/08/07 14:56:07;;;;;;;3.45;1.80;;;;;;;;;;4934986;29;20034;-80
2022/08/07 14:58:34;;;;;;;4.40;2.40;;;;;;;;;;4918227;29;20035;-80
2022/08/07 15:00:59;;;;;;;3.03;1.92;;;;;;;;;;4899752;29;20472;-81